Time;durP1;ratioP1;P1;durP2;ratioP2;P2;SDS_P1;SDS_P2;PMS_P1;PMS_P2;Temp;Humidity;BMP_temperature;BMP_pressure;BME280_temperature;BME280_humidity;BME280_pressure;Samples;Min_cycle;Max_cycle;Signal;HPM_P1;HPM_P2
2021/10/16 00:01:48;;;;;;;5.65;3.45;;;5.50;99.90;;;;;;5050241;28;20181;-77
2021/10/16 00:04:14;;;;;;;3.70;2.67;;;5.70;99.90;;;;;;5032280;28;20173;-77
2021/10/16 00:06:40;;;;;;;4.25;2.78;;;5.70;99.90;;;;;;5050117;28;20261;-77
2021/10/16 00:09:05;;;;;;;5.50;2.92;;;5.60;99.90;;;;;;5050090;28;20226;-77
2021/10/16 00:11:31;;;;;;;3.25;2.55;;;5.70;99.90;;;;;;5031952;28;20177;-77
2021/10/16 00:13:58;;;;;;;3.13;2.15;;;5.60;99.90;;;;;;5055210;28;20169;-77
2021/10/16 00:16:24;;;;;;;5.03;2.88;;;5.60;99.90;;;;;;5051764;28;20221;-77
2021/10/16 00:18:50;;;;;;;5.18;2.25;;;5.60;99.90;;;;;;5051608;28;20192;-76
2021/10/16 00:21:16;;;;;;;5.50;2.83;;;5.70;99.90;;;;;;5051567;28;20175;-76
2021/10/16 00:23:42;;;;;;;4.40;2.45;;;5.70;99.90;;;;;;5069483;28;20161;-76
2021/10/16 00:26:08;;;;;;;4.00;2.45;;;5.70;99.90;;;;;;5069670;28;20165;-76
2021/10/16 00:28:34;;;;;;;3.88;2.78;;;5.70;99.90;;;;;;5051188;28;20192;-77
2021/10/16 00:31:00;;;;;;;3.22;2.80;;;5.70;99.90;;;;;;5051048;28;20192;-76
2021/10/16 00:33:26;;;;;;;3.22;2.00;;;5.70;99.90;;;;;;5051180;28;20575;-77
2021/10/16 00:35:52;;;;;;;3.42;2.47;;;5.70;99.90;;;;;;5051233;28;20172;-77
2021/10/16 00:38:18;;;;;;;6.43;1.88;;;5.50;99.90;;;;;;5069029;28;20255;-76
2021/10/16 00:40:44;;;;;;;3.88;2.97;;;5.40;99.90;;;;;;5051203;28;20592;-78
2021/10/16 00:43:10;;;;;;;5.47;2.38;;;5.30;99.90;;;;;;5051043;28;20218;-76
2021/10/16 00:45:36;;;;;;;4.63;2.78;;;5.20;99.90;;;;;;5050963;28;20194;-76
2021/10/16 00:48:02;;;;;;;4.20;2.53;;;5.30;99.90;;;;;;5068832;28;20188;-76
2021/10/16 00:50:28;;;;;;;5.07;2.63;;;5.40;99.90;;;;;;5068964;28;20161;-76
2021/10/16 00:52:54;;;;;;;3.60;2.53;;;5.40;99.90;;;;;;5068711;28;20284;-76
2021/10/16 00:55:22;;;;;;;4.72;2.80;;;5.40;99.90;;;;;;5050779;28;20184;-76
2021/10/16 00:57:48;;;;;;;3.88;2.58;;;5.40;99.90;;;;;;5068063;28;20235;-76
2021/10/16 01:00:15;;;;;;;3.80;2.17;;;5.40;99.90;;;;;;5050246;28;20199;-76
2021/10/16 01:02:43;;;;;;;3.40;2.47;;;5.40;99.90;;;;;;5068138;28;20181;-75
2021/10/16 01:05:09;;;;;;;3.83;2.72;;;5.30;99.90;;;;;;5068256;28;20165;-76
2021/10/16 01:07:39;;;;;;;4.20;2.88;;;5.30;99.90;;;;;;5043474;28;20240;-75
2021/10/16 01:10:07;;;;;;;3.58;2.45;;;5.40;99.90;;;;;;5013186;28;20217;-76
2021/10/16 01:12:34;;;;;;;4.00;2.53;;;5.30;99.90;;;;;;5048083;28;20227;-76
2021/10/16 01:15:03;;;;;;;5.22;2.78;;;5.40;99.90;;;;;;5050468;28;20181;-76
2021/10/16 01:17:34;;;;;;;5.40;2.65;;;5.40;99.90;;;;;;5047750;28;20681;-75
2021/10/16 01:20:19;;;;;;;5.47;3.20;;;5.30;99.90;;;;;;5047991;28;20177;-76
2021/10/16 01:22:45;;;;;;;3.95;2.50;;;5.30;99.90;;;;;;5048088;28;20156;-75
2021/10/16 01:25:19;;;;;;;4.88;2.78;;;5.30;99.90;;;;;;5048101;28;20157;-75
2021/10/16 01:27:47;;;;;;;5.72;2.45;;;5.20;99.90;;;;;;5048224;28;20188;-76
2021/10/16 01:30:18;;;;;;;4.70;3.17;;;5.20;99.90;;;;;;5030378;28;20165;-74
2021/10/16 01:32:44;;;;;;;4.28;2.75;;;5.10;99.90;;;;;;5048005;28;20170;-76
2021/10/16 01:35:11;;;;;;;3.17;2.30;;;5.20;99.90;;;;;;5030065;28;20376;-76
2021/10/16 01:37:46;;;;;;;4.10;2.80;;;5.00;99.90;;;;;;5030036;28;20235;-76
2021/10/16 01:40:13;;;;;;;3.80;2.67;;;4.90;99.90;;;;;;5048126;28;20203;-76
2021/10/16 01:42:42;;;;;;;4.53;3.03;;;4.80;99.90;;;;;;5029851;28;20185;-75
2021/10/16 01:45:14;;;;;;;4.35;2.90;;;4.80;99.90;;;;;;5029891;28;20170;-75
2021/10/16 01:47:54;;;;;;;4.20;2.65;;;4.90;99.90;;;;;;5029923;28;20220;-77
2021/10/16 01:50:22;;;;;;;3.47;2.50;;;4.90;99.90;;;;;;5047744;28;20173;-77
2021/10/16 01:52:47;;;;;;;4.15;2.67;;;5.00;99.90;;;;;;5047477;28;20224;-75
2021/10/16 01:55:14;;;;;;;2.75;2.22;;;5.00;99.90;;;;;;5047543;28;20177;-75
2021/10/16 01:57:41;;;;;;;4.85;2.17;;;5.00;99.90;;;;;;5047382;28;20214;-75
2021/10/16 02:00:09;;;;;;;4.10;2.42;;;5.10;99.90;;;;;;5029658;28;20310;-75
2021/10/16 02:02:35;;;;;;;6.28;2.63;;;5.20;99.90;;;;;;5047547;28;20161;-76
2021/10/16 02:05:01;;;;;;;3.85;2.42;;;5.20;99.90;;;;;;5029678;28;20188;-76
2021/10/16 02:07:27;;;;;;;2.80;1.85;;;5.20;99.90;;;;;;5021446;28;20228;-76
2021/10/16 02:09:52;;;;;;;3.00;2.20;;;5.10;99.90;;;;;;5046047;28;20183;-76
2021/10/16 02:12:18;;;;;;;5.15;2.65;;;5.10;99.90;;;;;;5026363;28;20181;-77
2021/10/16 02:14:44;;;;;;;3.08;2.25;;;5.20;99.90;;;;;;5051320;28;20175;-76
2021/10/16 02:17:10;;;;;;;5.22;2.35;;;5.30;99.90;;;;;;5049193;28;20201;-76
2021/10/16 02:19:36;;;;;;;2.88;2.40;;;5.40;99.90;;;;;;5046220;28;20221;-76
2021/10/16 02:22:02;;;;;;;6.53;2.20;;;5.50;99.90;;;;;;5047488;28;20220;-77
2021/10/16 02:24:28;;;;;;;3.17;2.10;;;5.50;99.90;;;;;;5047520;28;20177;-76
2021/10/16 02:26:54;;;;;;;3.20;2.20;;;5.70;99.90;;;;;;5047316;28;20193;-76
2021/10/16 02:29:19;;;;;;;10.10;2.97;;;5.70;99.90;;;;;;5045244;28;20158;-76
2021/10/16 02:31:45;;;;;;;4.80;2.53;;;5.70;99.90;;;;;;5043702;28;20248;-77
2021/10/16 02:34:11;;;;;;;4.07;2.42;;;5.80;99.90;;;;;;5043811;28;20165;-76
2021/10/16 02:36:36;;;;;;;5.07;2.80;;;5.80;99.90;;;;;;5044557;28;20161;-76
2021/10/16 02:39:03;;;;;;;6.80;3.80;;;5.80;99.90;;;;;;5044836;28;20232;-76
2021/10/16 02:41:28;;;;;;;5.38;2.97;;;5.70;99.90;;;;;;5044775;28;20225;-76
2021/10/16 02:43:54;;;;;;;3.85;2.63;;;5.90;99.90;;;;;;5045130;28;20169;-76
2021/10/16 02:46:20;;;;;;;4.55;2.72;;;5.90;99.90;;;;;;5029319;28;20182;-75
2021/10/16 02:48:46;;;;;;;8.43;3.28;;;6.00;99.90;;;;;;5047507;28;20204;-76
2021/10/16 02:51:12;;;;;;;2.92;2.17;;;6.20;99.90;;;;;;5047367;28;20228;-75
2021/10/16 02:53:40;;;;;;;9.70;6.45;;;6.20;99.90;;;;;;5047497;28;20217;-76
2021/10/16 02:56:06;;;;;;;11.77;6.25;;;6.20;99.90;;;;;;5047342;28;20166;-76
2021/10/16 02:58:32;;;;;;;10.70;6.85;;;6.20;99.90;;;;;;5047441;28;20212;-76
2021/10/16 03:00:58;;;;;;;7.35;5.53;;;6.30;99.90;;;;;;5029813;28;20174;-77
2021/10/16 03:03:23;;;;;;;9.43;3.03;;;6.30;99.90;;;;;;5047378;28;20157;-77
2021/10/16 03:05:49;;;;;;;4.97;2.60;;;6.30;99.90;;;;;;5029538;28;20577;-77
2021/10/16 03:08:15;;;;;;;3.08;2.22;;;6.40;99.90;;;;;;5047364;28;20262;-76
2021/10/16 03:10:43;;;;;;;4.28;2.13;;;6.40;99.90;;;;;;5047418;28;20272;-76
2021/10/16 03:13:09;;;;;;;5.10;3.05;;;6.50;99.90;;;;;;5047248;28;20545;-76
2021/10/16 03:15:35;;;;;;;8.88;2.75;;;6.50;99.90;;;;;;5047226;28;20169;-77
2021/10/16 03:18:01;;;;;;;4.50;2.50;;;6.50;99.90;;;;;;5029555;28;20212;-76
2021/10/16 03:20:26;;;;;;;5.63;2.45;;;6.60;99.90;;;;;;5049686;28;20224;-76
2021/10/16 03:22:52;;;;;;;5.25;2.40;;;6.70;99.90;;;;;;5033122;28;20169;-77
2021/10/16 03:25:18;;;;;;;9.18;3.30;;;6.60;99.90;;;;;;5033422;28;20173;-78
2021/10/16 03:27:44;;;;;;;5.60;3.15;;;6.60;99.90;;;;;;5033031;28;20189;-76
2021/10/16 03:30:10;;;;;;;6.75;2.72;;;6.70;99.90;;;;;;5032916;28;20201;-76
2021/10/16 03:32:36;;;;;;;6.00;2.35;;;6.70;99.90;;;;;;5050792;28;20630;-76
2021/10/16 03:35:02;;;;;;;7.82;2.65;;;6.60;99.90;;;;;;5050705;28;20167;-76
2021/10/16 03:37:28;;;;;;;5.28;2.60;;;6.70;99.90;;;;;;5032839;28;20200;-77
2021/10/16 03:39:54;;;;;;;9.05;2.90;;;6.70;99.90;;;;;;5032622;28;20197;-77
2021/10/16 03:42:20;;;;;;;5.13;2.45;;;6.80;99.90;;;;;;5050481;28;20185;-77
2021/10/16 03:44:46;;;;;;;7.03;2.88;;;6.90;99.90;;;;;;5032462;28;20186;-76
2021/10/16 03:47:12;;;;;;;4.25;2.83;;;6.80;99.90;;;;;;5032458;28;20209;-76
2021/10/16 03:49:38;;;;;;;5.07;2.28;;;6.90;99.90;;;;;;5032205;28;20217;-77
2021/10/16 03:52:04;;;;;;;9.70;2.58;;;7.10;99.90;;;;;;5032376;28;20169;-75
2021/10/16 03:54:30;;;;;;;5.88;2.38;;;7.10;99.90;;;;;;5050012;28;20296;-76
2021/10/16 03:56:56;;;;;;;5.63;2.30;;;7.20;99.90;;;;;;5050025;28;20162;-77
2021/10/16 03:59:23;;;;;;;6.68;2.70;;;7.20;99.90;;;;;;5049790;28;20688;-77
2021/10/16 04:01:49;;;;;;;6.03;2.78;;;7.20;99.90;;;;;;5050078;28;20158;-75
2021/10/16 04:04:15;;;;;;;8.30;3.00;;;7.10;99.90;;;;;;5049960;28;20154;-76
2021/10/16 04:06:41;;;;;;;6.28;2.42;;;7.10;99.90;;;;;;5049942;28;20184;-76
2021/10/16 04:09:07;;;;;;;6.32;2.75;;;7.10;99.90;;;;;;5049693;28;20254;-76
2021/10/16 04:11:32;;;;;;;8.27;2.90;;;7.10;99.90;;;;;;5049762;28;20191;-76
2021/10/16 04:13:58;;;;;;;8.18;3.20;;;7.00;99.90;;;;;;5049821;28;20172;-77
2021/10/16 04:16:24;;;;;;;7.20;3.20;;;7.00;99.90;;;;;;5031937;28;20205;-77
2021/10/16 04:18:50;;;;;;;10.80;4.28;;;6.90;99.90;;;;;;5049725;28;20283;-77
2021/10/16 04:21:16;;;;;;;6.32;3.38;;;6.80;99.90;;;;;;5031634;28;20180;-76
2021/10/16 04:23:42;;;;;;;17.80;3.05;;;6.80;99.90;;;;;;5031739;28;20168;-76
2021/10/16 04:26:08;;;;;;;8.45;3.58;;;6.80;99.90;;;;;;5049675;28;20214;-76
2021/10/16 04:28:33;;;;;;;3.88;2.90;;;6.90;99.90;;;;;;5031558;28;20227;-77
2021/10/16 04:30:59;;;;;;;5.15;3.63;;;6.80;99.90;;;;;;5049086;28;20547;-77
2021/10/16 04:33:25;;;;;;;7.28;3.53;;;6.70;99.90;;;;;;5031769;28;20201;-76
2021/10/16 04:35:51;;;;;;;9.98;4.03;;;6.70;99.90;;;;;;5049557;28;20173;-75
2021/10/16 04:38:17;;;;;;;7.65;3.13;;;6.80;99.90;;;;;;5049127;28;20276;-76
2021/10/16 04:40:43;;;;;;;6.38;3.08;;;6.80;99.90;;;;;;5049453;28;20168;-76
2021/10/16 04:43:10;;;;;;;4.05;3.08;;;6.90;99.90;;;;;;5049353;28;20157;-76
2021/10/16 04:45:36;;;;;;;9.95;3.60;;;6.90;99.90;;;;;;5031468;28;20170;-76
2021/10/16 04:48:07;;;;;;;5.85;3.08;;;6.90;99.90;;;;;;5049381;28;20172;-77
2021/10/16 04:50:33;;;;;;;6.03;3.63;;;6.80;99.90;;;;;;5031457;28;20203;-76
2021/10/16 04:52:59;;;;;;;9.55;3.05;;;6.90;99.90;;;;;;5049051;28;20249;-76
2021/10/16 04:55:24;;;;;;;8.43;3.38;;;6.90;99.90;;;;;;5049234;28;20173;-76
2021/10/16 04:57:50;;;;;;;5.93;3.17;;;6.90;99.90;;;;;;5031428;28;20200;-76
2021/10/16 05:00:17;;;;;;;4.72;2.65;;;6.90;99.90;;;;;;5048943;28;20189;-75
2021/10/16 05:02:42;;;;;;;3.80;2.35;;;6.90;99.90;;;;;;5031128;28;20291;-76
2021/10/16 05:05:08;;;;;;;5.53;3.30;;;6.90;99.90;;;;;;5048962;28;20631;-75
2021/10/16 05:07:34;;;;;;;6.03;3.17;;;7.00;99.90;;;;;;5048906;28;20185;-76
2021/10/16 05:10:02;;;;;;;6.75;3.85;;;7.00;99.90;;;;;;5048805;28;20254;-76
2021/10/16 05:12:28;;;;;;;6.53;3.78;;;6.90;99.90;;;;;;5048801;28;20158;-76
2021/10/16 05:14:54;;;;;;;8.20;3.47;;;6.90;99.90;;;;;;5048662;28;20180;-76
2021/10/16 05:17:20;;;;;;;8.80;4.30;;;7.00;99.90;;;;;;5048660;28;20216;-75
2021/10/16 05:19:45;;;;;;;6.75;3.88;;;7.00;99.90;;;;;;5048487;28;20185;-76
2021/10/16 05:22:11;;;;;;;5.90;3.60;;;7.00;99.90;;;;;;5048530;28;20180;-76
2021/10/16 05:24:37;;;;;;;7.07;3.17;;;7.00;99.90;;;;;;5030626;28;20248;-75
2021/10/16 05:27:03;;;;;;;11.52;4.20;;;7.10;99.90;;;;;;5048429;28;20569;-75
2021/10/16 05:29:29;;;;;;;9.95;4.30;;;7.10;99.90;;;;;;5048346;28;20204;-75
2021/10/16 05:31:55;;;;;;;7.00;4.20;;;7.20;99.90;;;;;;5048356;28;20161;-75
2021/10/16 05:34:21;;;;;;;6.78;3.83;;;7.20;99.90;;;;;;5047967;28;20176;-76
2021/10/16 05:36:47;;;;;;;8.52;4.03;;;7.10;99.90;;;;;;5030329;28;20272;-75
2021/10/16 05:39:13;;;;;;;9.65;4.10;;;7.00;99.90;;;;;;5029313;28;20209;-75
2021/10/16 05:41:39;;;;;;;8.15;5.10;;;6.80;99.90;;;;;;5047683;28;20173;-75
2021/10/16 05:44:05;;;;;;;7.60;4.75;;;6.80;99.90;;;;;;5029559;28;20173;-75
2021/10/16 05:46:33;;;;;;;7.13;4.18;;;6.80;99.90;;;;;;5030204;28;20184;-75
2021/10/16 05:49:00;;;;;;;5.97;4.65;;;6.90;99.90;;;;;;5048088;28;20223;-75
2021/10/16 05:51:25;;;;;;;9.85;5.53;;;7.00;99.90;;;;;;5048180;28;20168;-75
2021/10/16 05:53:51;;;;;;;11.13;5.45;;;7.00;99.90;;;;;;5055666;28;20220;-75
2021/10/16 05:56:17;;;;;;;9.98;5.45;;;7.00;99.90;;;;;;5067918;28;20235;-75
2021/10/16 05:58:43;;;;;;;11.82;4.95;;;7.10;99.90;;;;;;5067701;28;20188;-74
2021/10/16 06:01:09;;;;;;;6.43;4.10;;;7.20;99.90;;;;;;5066452;28;20173;-74
2021/10/16 06:03:35;;;;;;;6.10;4.05;;;7.20;99.90;;;;;;5066445;28;20172;-75
2021/10/16 06:06:00;;;;;;;7.55;3.80;;;7.20;99.90;;;;;;5067988;28;20161;-75
2021/10/16 06:08:27;;;;;;;7.38;4.03;;;7.20;99.90;;;;;;5067920;28;20187;-74
2021/10/16 06:10:53;;;;;;;6.30;3.85;;;7.30;99.90;;;;;;5067946;28;20161;-76
2021/10/16 06:13:19;;;;;;;6.90;5.10;;;7.10;99.90;;;;;;5067787;28;20164;-74
2021/10/16 06:15:46;;;;;;;6.95;4.78;;;7.10;99.90;;;;;;5066435;28;20181;-74
2021/10/16 06:18:13;;;;;;;7.95;4.40;;;7.10;99.90;;;;;;5067520;28;20197;-75
2021/10/16 06:20:40;;;;;;;7.78;4.15;;;7.20;99.90;;;;;;5066343;28;20203;-74
2021/10/16 06:23:06;;;;;;;11.10;4.93;;;7.20;99.90;;;;;;5067560;28;20157;-75
2021/10/16 06:25:32;;;;;;;12.35;5.10;;;7.20;99.90;;;;;;5067735;28;20161;-75
2021/10/16 06:27:58;;;;;;;10.00;5.68;;;7.20;99.90;;;;;;5067754;28;20219;-75
2021/10/16 06:30:24;;;;;;;7.95;4.57;;;7.30;99.90;;;;;;5065850;28;20204;-75
2021/10/16 06:32:50;;;;;;;10.55;4.53;;;7.40;99.90;;;;;;5067334;28;20172;-75
2021/10/16 06:35:17;;;;;;;9.07;5.63;;;7.40;99.90;;;;;;5067352;28;20252;-75
2021/10/16 06:37:43;;;;;;;10.80;4.55;;;7.50;99.90;;;;;;5067271;28;20193;-74
2021/10/16 06:40:09;;;;;;;10.73;4.15;;;7.70;99.90;;;;;;5065976;28;20262;-74
2021/10/16 06:42:35;;;;;;;6.03;3.63;;;7.80;99.90;;;;;;5065903;28;20570;-74
2021/10/16 06:45:01;;;;;;;5.53;3.80;;;7.90;99.90;;;;;;5067385;28;20165;-74
2021/10/16 06:47:26;;;;;;;8.00;3.97;;;7.90;99.90;;;;;;5065837;28;20169;-75
2021/10/16 06:49:52;;;;;;;8.50;4.28;;;7.80;99.90;;;;;;5065731;28;20196;-76
2021/10/16 06:52:18;;;;;;;9.13;4.40;;;7.90;99.90;;;;;;5065406;28;20589;-75
2021/10/16 06:54:44;;;;;;;8.25;4.03;;;8.00;99.90;;;;;;5030828;28;20169;-75
2021/10/16 06:57:10;;;;;;;10.05;4.10;;;8.00;99.90;;;;;;5033352;28;20169;-75
2021/10/16 06:59:36;;;;;;;6.68;4.40;;;8.10;99.90;;;;;;5050824;28;20697;-74
2021/10/16 07:02:02;;;;;;;8.27;3.90;;;8.20;99.90;;;;;;5033410;28;20578;-74
2021/10/16 07:04:27;;;;;;;7.45;3.08;;;8.40;99.90;;;;;;5051140;28;20184;-74
2021/10/16 07:06:53;;;;;;;9.98;3.25;;;8.50;99.90;;;;;;5051233;28;20176;-74
2021/10/16 07:09:19;;;;;;;6.63;4.07;;;8.80;99.90;;;;;;5050853;28;20261;-74
2021/10/16 07:11:45;;;;;;;4.32;3.20;;;8.90;99.90;;;;;;5051047;28;20224;-76
2021/10/16 07:14:11;;;;;;;7.07;3.75;;;9.00;99.90;;;;;;5050749;28;20205;-74
2021/10/16 07:16:37;;;;;;;9.57;4.15;;;9.00;99.90;;;;;;5032510;28;20180;-73
2021/10/16 07:19:03;;;;;;;5.20;3.35;;;8.90;99.90;;;;;;5032748;28;20657;-73
2021/10/16 07:21:29;;;;;;;7.30;3.38;;;9.10;99.90;;;;;;5050425;28;20153;-74
2021/10/16 07:23:56;;;;;;;8.55;4.32;;;9.20;99.90;;;;;;5050123;28;20171;-73
2021/10/16 07:26:22;;;;;;;7.03;4.25;;;9.30;99.90;;;;;;5050263;28;20617;-74
2021/10/16 07:28:50;;;;;;;9.82;3.95;;;9.20;99.90;;;;;;5050358;28;20197;-74
2021/10/16 07:31:16;;;;;;;10.40;5.07;;;9.10;99.90;;;;;;5050344;28;20522;-75
2021/10/16 07:33:42;;;;;;;7.00;3.63;;;9.10;99.90;;;;;;5050293;28;20184;-75
2021/10/16 07:36:08;;;;;;;7.50;4.32;;;9.30;99.90;;;;;;5050304;28;20215;-75
2021/10/16 07:38:34;;;;;;;11.82;4.38;;;9.50;99.90;;;;;;5049909;28;20249;-76
2021/10/16 07:41:00;;;;;;;5.78;3.83;;;9.40;99.90;;;;;;5032800;28;20184;-75
2021/10/16 07:43:26;;;;;;;6.45;3.83;;;9.40;99.90;;;;;;5049536;28;20165;-75
2021/10/16 07:45:52;;;;;;;6.78;3.55;;;9.40;99.90;;;;;;5050202;28;20162;-75
2021/10/16 07:48:18;;;;;;;6.03;3.40;;;9.50;99.90;;;;;;5049792;28;20157;-75
2021/10/16 07:50:44;;;;;;;7.05;3.90;;;9.70;99.90;;;;;;5050008;28;20196;-75
2021/10/16 07:53:10;;;;;;;7.18;4.35;;;9.90;99.90;;;;;;5046211;28;20242;-76
2021/10/16 07:55:36;;;;;;;8.90;4.50;;;9.80;99.90;;;;;;5069780;28;20183;-76
2021/10/16 07:58:02;;;;;;;8.18;4.38;;;10.20;99.90;;;;;;5069683;28;20199;-75
2021/10/16 08:00:28;;;;;;;5.68;3.95;;;10.30;99.90;;;;;;5069495;28;20591;-74
2021/10/16 08:02:54;;;;;;;8.57;4.53;;;10.50;99.90;;;;;;5062315;28;20177;-75
2021/10/16 08:05:20;;;;;;;9.13;4.10;;;11.30;99.90;;;;;;5058345;28;20509;-75
2021/10/16 08:07:46;;;;;;;6.07;3.65;;;11.70;99.90;;;;;;5055593;28;20195;-75
2021/10/16 08:10:13;;;;;;;5.38;3.42;;;12.10;99.90;;;;;;5053277;28;20208;-75
2021/10/16 08:12:39;;;;;;;6.30;3.55;;;11.90;99.90;;;;;;5048949;28;20177;-75
2021/10/16 08:15:07;;;;;;;5.68;3.20;;;11.70;99.90;;;;;;5049055;28;20213;-75
2021/10/16 08:17:33;;;;;;;4.22;3.50;;;11.70;99.90;;;;;;5049664;28;20177;-75
2021/10/16 08:19:59;;;;;;;20.85;12.00;;;11.50;99.90;;;;;;5049733;28;20181;-75
2021/10/16 08:22:25;;;;;;;6.60;4.30;;;11.80;99.90;;;;;;5048095;28;20208;-74
2021/10/16 08:24:51;;;;;;;8.48;3.72;;;12.10;99.90;;;;;;5050177;28;20158;-75
2021/10/16 08:27:17;;;;;;;7.15;3.03;;;12.10;99.90;;;;;;5059067;28;20188;-76
2021/10/16 08:29:43;;;;;;;5.18;3.45;;;12.20;99.90;;;;;;5056378;28;20161;-75
2021/10/16 08:32:09;;;;;;;9.20;3.28;;;12.20;99.90;;;;;;5068267;28;20193;-75
2021/10/16 08:34:35;;;;;;;7.35;3.50;;;12.60;99.90;;;;;;5060056;28;20196;-76
2021/10/16 08:37:01;;;;;;;4.63;2.85;;;13.20;99.90;;;;;;5052778;28;20189;-76
2021/10/16 08:39:27;;;;;;;3.30;2.80;;;13.20;99.90;;;;;;5051246;28;20844;-76
2021/10/16 08:41:54;;;;;;;6.90;3.20;;;14.30;99.90;;;;;;5048100;28;20158;-76
2021/10/16 08:44:19;;;;;;;6.15;3.53;;;15.30;99.90;;;;;;5065008;28;20154;-76
2021/10/16 08:46:45;;;;;;;6.13;3.70;;;14.60;99.90;;;;;;5064807;28;20219;-76
2021/10/16 08:49:14;;;;;;;9.05;4.10;;;14.30;99.90;;;;;;5066657;28;20168;-75
2021/10/16 08:51:41;;;;;;;7.75;4.15;;;13.40;99.90;;;;;;5066506;28;20192;-76
2021/10/16 08:54:07;;;;;;;7.88;4.13;;;13.10;99.90;;;;;;5052046;28;20278;-76
2021/10/16 08:56:33;;;;;;;7.50;4.55;;;13.30;99.90;;;;;;5031275;28;20173;-75
2021/10/16 08:59:00;;;;;;;11.90;5.07;;;13.40;99.90;;;;;;5048854;28;20196;-75
2021/10/16 09:01:26;;;;;;;6.22;3.83;;;13.00;99.90;;;;;;5031197;28;20205;-75
2021/10/16 09:03:54;;;;;;;6.95;4.32;;;12.50;99.90;;;;;;5031247;28;20229;-75
2021/10/16 09:06:27;;;;;;;5.88;3.92;;;12.20;99.90;;;;;;5049314;28;20154;-76
2021/10/16 09:09:00;;;;;;;6.00;3.63;;;12.30;99.90;;;;;;5031056;28;20602;-76
2021/10/16 09:11:32;;;;;;;7.13;4.43;;;12.40;99.90;;;;;;5030677;28;20209;-76
2021/10/16 09:14:07;;;;;;;7.72;3.85;;;12.40;99.90;;;;;;5048578;28;20627;-76
2021/10/16 09:16:47;;;;;;;6.45;3.15;;;12.40;99.90;;;;;;5048580;28;20626;-76
2021/10/16 09:19:25;;;;;;;6.13;3.60;;;12.60;99.90;;;;;;5030439;28;20280;-75
2021/10/16 09:21:58;;;;;;;7.47;3.50;;;12.70;99.90;;;;;;5048373;28;20149;-75
2021/10/16 09:24:27;;;;;;;4.40;3.63;;;12.60;99.90;;;;;;5030583;28;20165;-75
2021/10/16 09:27:05;;;;;;;8.30;3.92;;;12.70;99.90;;;;;;5030698;28;20185;-75
2021/10/16 09:29:37;;;;;;;4.20;3.60;;;12.80;99.90;;;;;;5030481;28;20169;-76
2021/10/16 09:32:08;;;;;;;5.55;4.03;;;12.70;99.90;;;;;;5029865;28;20186;-76
2021/10/16 09:34:41;;;;;;;8.73;3.38;;;12.70;99.90;;;;;;5044176;28;20189;-76
2021/10/16 09:37:18;;;;;;;6.20;3.30;;;12.60;99.90;;;;;;5030987;28;20188;-75
2021/10/16 09:39:47;;;;;;;5.60;4.07;;;12.70;99.90;;;;;;5030596;28;20204;-75
2021/10/16 09:42:15;;;;;;;5.95;4.07;;;12.80;99.90;;;;;;5030794;28;20172;-76
2021/10/16 09:44:44;;;;;;;6.78;3.88;;;12.80;99.90;;;;;;5030724;28;20199;-76
2021/10/16 09:47:19;;;;;;;8.85;3.50;;;12.70;99.90;;;;;;5030395;28;20169;-76
2021/10/16 09:49:47;;;;;;;5.70;4.28;;;12.50;99.90;;;;;;5030459;28;20598;-76
2021/10/16 09:52:16;;;;;;;6.50;3.80;;;12.30;99.90;;;;;;5048879;28;20173;-76
2021/10/16 09:54:44;;;;;;;13.23;4.97;;;12.30;99.90;;;;;;5048948;28;20161;-76
2021/10/16 09:57:12;;;;;;;6.65;4.45;;;12.00;99.90;;;;;;5049005;28;20481;-75
2021/10/16 09:59:40;;;;;;;6.30;3.72;;;12.10;99.90;;;;;;5030941;28;20280;-76
2021/10/16 10:02:08;;;;;;;6.57;4.22;;;12.10;99.90;;;;;;5030939;28;20176;-74
2021/10/16 10:04:42;;;;;;;6.53;4.20;;;12.20;99.90;;;;;;5047878;28;20303;-75
2021/10/16 10:07:09;;;;;;;9.10;4.70;;;12.20;99.90;;;;;;5047904;28;20223;-75
2021/10/16 10:09:38;;;;;;;5.47;4.00;;;12.40;99.90;;;;;;5047759;28;20165;-75
2021/10/16 10:12:06;;;;;;;9.35;3.80;;;12.80;99.90;;;;;;5029907;28;20288;-75
2021/10/16 10:14:32;;;;;;;8.60;4.18;;;13.10;99.90;;;;;;5029957;28;20177;-75
2021/10/16 10:17:05;;;;;;;22.70;4.30;;;13.30;99.90;;;;;;5029882;28;20241;-75
2021/10/16 10:19:39;;;;;;;6.00;4.13;;;13.40;99.90;;;;;;5030048;28;20204;-75
2021/10/16 10:22:14;;;;;;;11.35;3.85;;;13.50;99.90;;;;;;5047699;28;20181;-75
2021/10/16 10:24:42;;;;;;;7.60;4.57;;;13.90;99.90;;;;;;5047686;28;20568;-75
2021/10/16 10:27:10;;;;;;;4.85;3.60;;;14.30;99.90;;;;;;5047812;28;20172;-75
2021/10/16 10:29:42;;;;;;;12.38;4.15;;;14.40;99.90;;;;;;5049015;28;20187;-75
2021/10/16 10:32:24;;;;;;;5.65;3.60;;;14.30;99.90;;;;;;5051914;28;20207;-75
2021/10/16 10:35:03;;;;;;;8.85;3.35;;;14.20;99.90;;;;;;5052669;28;20180;-75
2021/10/16 10:37:41;;;;;;;5.03;3.78;;;14.60;99.90;;;;;;5033950;28;20184;-76
2021/10/16 10:40:20;;;;;;;6.90;3.20;;;15.60;99.90;;;;;;5052501;28;20185;-76
2021/10/16 10:42:56;;;;;;;4.95;3.13;;;16.90;99.90;;;;;;5034915;28;20251;-76
2021/10/16 10:45:34;;;;;;;8.13;2.60;;;17.90;99.90;;;;;;5033768;28;20196;-76
2021/10/16 10:48:12;;;;;;;4.47;2.40;;;16.40;99.90;;;;;;5051466;28;20158;-76
2021/10/16 10:50:39;;;;;;;4.25;2.60;;;15.40;99.90;;;;;;5051354;28;20527;-75
2021/10/16 10:53:10;;;;;;;4.50;2.65;;;14.90;99.90;;;;;;5051175;28;20220;-76
2021/10/16 10:56:00;;;;;;;5.60;3.22;;;15.20;99.90;;;;;;5051159;28;20165;-75
2021/10/16 10:58:56;;;;;;;4.47;2.95;;;15.10;99.90;;;;;;5051262;28;20205;-74
2021/10/16 11:01:54;;;;;;;5.13;3.10;;;15.50;99.90;;;;;;5051116;28;20181;-77
2021/10/16 11:04:46;;;;;;;5.18;2.38;;;15.40;99.90;;;;;;5032995;28;20188;-76
2021/10/16 11:07:33;;;;;;;5.45;2.25;;;15.40;99.90;;;;;;5050920;28;20169;-76
2021/10/16 11:10:01;;;;;;;6.93;3.67;;;15.50;99.90;;;;;;5032821;28;20204;-76
2021/10/16 11:12:38;;;;;;;4.18;2.78;;;16.00;99.90;;;;;;5050995;28;20169;-77
2021/10/16 11:15:06;;;;;;;3.83;3.03;;;16.50;99.90;;;;;;5050545;28;20184;-76
2021/10/16 11:17:35;;;;;;;6.68;2.83;;;17.00;99.90;;;;;;5050599;28;20161;-76
2021/10/16 11:20:02;;;;;;;4.00;2.55;;;16.70;99.90;;;;;;5051576;28;20190;-76
2021/10/16 11:22:48;;;;;;;4.40;2.20;;;16.70;99.90;;;;;;5034416;28;20166;-76
2021/10/16 11:25:20;;;;;;;3.88;2.42;;;17.80;99.90;;;;;;5034232;28;20176;-76
2021/10/16 11:28:21;;;;;;;3.53;2.22;;;17.90;99.90;;;;;;5034289;28;20184;-76
2021/10/16 11:30:49;;;;;;;4.13;2.03;;;16.10;99.90;;;;;;4936125;29;20228;-76
2021/10/16 11:33:17;;;;;;;2.58;2.10;;;15.70;99.90;;;;;;4936100;29;20185;-70
2021/10/16 11:35:47;;;;;;;3.88;2.05;;;15.80;99.90;;;;;;4936536;29;20228;-71
2021/10/16 11:38:15;;;;;;;3.35;2.30;;;15.60;99.90;;;;;;4935717;29;20212;-69
2021/10/16 11:40:42;;;;;;;2.60;2.00;;;15.30;99.90;;;;;;4935067;29;20211;-69
2021/10/16 11:43:22;;;;;;;3.17;2.20;;;15.10;99.90;;;;;;4934797;29;20177;-70
2021/10/16 11:45:50;;;;;;;2.35;1.77;;;15.10;99.90;;;;;;4950623;29;20232;-70
2021/10/16 11:48:20;;;;;;;3.10;2.10;;;15.20;99.90;;;;;;4950563;29;20179;-70
2021/10/16 11:50:51;;;;;;;3.47;2.22;;;15.40;99.90;;;;;;4950726;29;20200;-70
2021/10/16 11:53:23;;;;;;;3.15;2.28;;;15.50;99.90;;;;;;4968962;28;20223;-70
2021/10/16 11:55:49;;;;;;;2.88;1.85;;;15.70;99.90;;;;;;4973163;28;20649;-70
2021/10/16 11:58:18;;;;;;;3.45;1.60;;;15.40;99.90;;;;;;4988784;28;20223;-70
2021/10/16 12:00:50;;;;;;;3.70;1.80;;;15.30;99.90;;;;;;4989737;28;20199;-69
2021/10/16 12:03:18;;;;;;;2.72;1.38;;;15.40;99.90;;;;;;4973321;28;20281;-70
2021/10/16 12:05:47;;;;;;;2.60;1.60;;;15.60;99.90;;;;;;5005675;28;20208;-71
2021/10/16 12:08:18;;;;;;;3.47;1.70;;;15.80;99.90;;;;;;5049932;28;20181;-71
2021/10/16 12:10:56;;;;;;;2.75;1.70;;;15.70;99.90;;;;;;5048685;28;20205;-71
2021/10/16 12:13:42;;;;;;;1.85;1.48;;;15.50;99.90;;;;;;5050340;28;20177;-70
2021/10/16 12:16:19;;;;;;;2.05;1.52;;;15.70;99.90;;;;;;5050421;28;20185;-70
2021/10/16 12:19:11;;;;;;;2.42;1.42;;;15.60;99.90;;;;;;5048705;28;20219;-70
2021/10/16 12:21:49;;;;;;;1.33;1.20;;;15.50;99.90;;;;;;5049617;28;20204;-70
2021/10/16 12:24:16;;;;;;;1.85;1.52;;;15.30;99.90;;;;;;5048929;28;20235;-71
2021/10/16 12:26:46;;;;;;;3.38;1.38;;;15.30;99.90;;;;;;5049734;28;20156;-71
2021/10/16 12:29:30;;;;;;;1.25;1.15;;;15.50;99.90;;;;;;5049621;28;20317;-71
2021/10/16 12:31:57;;;;;;;2.15;1.75;;;15.50;99.90;;;;;;5049649;28;20207;-71
2021/10/16 12:34:29;;;;;;;3.90;1.60;;;15.50;99.90;;;;;;5057017;28;20177;-71
2021/10/16 12:36:59;;;;;;;2.22;1.70;;;15.70;99.90;;;;;;5049423;28;20219;-72
2021/10/16 12:39:31;;;;;;;2.05;1.85;;;15.50;99.90;;;;;;5052527;28;20679;-71
2021/10/16 12:42:15;;;;;;;1.45;1.35;;;15.40;99.90;;;;;;5057895;28;20205;-70
2021/10/16 12:44:44;;;;;;;2.05;1.63;;;15.20;99.90;;;;;;5064492;28;20710;-71
2021/10/16 12:47:15;;;;;;;3.30;1.73;;;15.10;99.90;;;;;;5069472;28;20188;-70
2021/10/16 12:49:48;;;;;;;1.83;1.40;;;15.50;99.90;;;;;;5049122;28;20224;-69
2021/10/16 12:52:27;;;;;;;2.63;1.63;;;15.40;99.90;;;;;;5047736;28;20311;-70
2021/10/16 12:54:57;;;;;;;2.53;1.98;;;15.20;99.90;;;;;;5012290;28;20185;-73
2021/10/16 12:57:24;;;;;;;4.07;1.90;;;15.40;99.90;;;;;;5021752;28;20216;-72
2021/10/16 12:59:50;;;;;;;1.70;1.13;;;15.70;99.90;;;;;;5029090;28;20213;-73